CSZ8 weather

Montréal (Sacré-Coeur) Heliport
Montréal, Quebec, Canada

Public forecast

Using degrees Celsius for public forecast. Weather courtesy of forecast.io.

METAR (pilot weather report)

Closest report is Montreal / Pierre Elliott Trudeau International Airport, 3.9 nm (7.3 km) SSW. Retrieved 2019/07/19 13:00 UTC (24 minutes ago):

CYUL 191300Z 22008KT 30SM FEW010 BKN077 24/21 A2974 RMK CF1AC7 CF TR SLP071 DENSITY ALT 1500FT

TAF (pilot weather forecast)

Closest forecast is Montreal / Pierre Elliott Trudeau International Airport, 3.9 nm (7.3 km) SSW. Retrieved 2019/07/19 12:42 UTC (42 minutes ago):

TAF CYUL 191138Z 1912/2012 17008KT P6SM FEW030 BKN070 TEMPO 1912/1914 P6SM -SHRA BKN030 BECMG 1912/1914 24015G25KT FM191400 25015G25KT P6SM BKN040 FM191800 24012G22KT P6SM SCT050 FM192100 24012G22KT P6SM SCT040 TEMPO 1921/2001 P6SM VCTS SCT040CB FM201000 25012KT P6SM BKN015 RMK NXT FCST BY 191500Z